This is the latest recevied weather packets stored in our database for station/object 9W2UHF-10. If no packets are shown the sender has not sent any weather packets the latest 10 day(s).
| Time | Temp. | Humidity | Pressure | Rain* | Wind** | Luminosity | Snow |
|---|---|---|---|---|---|---|---|
| 1777551911 | 32.22° C | 59% | 1011.1 hPa | - | - | - | - |
| 1777548311 | 33.33° C | 61% | 1010 hPa | - | - | - | - |
| 1777545427 | 35° C | 57% | 1009.6 hPa | - | - | - | - |
| 1777544227 | 35° C | 53% | 1008.8 hPa | - | - | - | - |
| 1777543026 | 35° C | 53% | 1008 hPa | - | - | - | - |
| 1777541912 | 35° C | 54% | 1008.1 hPa | - | - | - | - |
| 1777541826 | 35° C | 54% | 1008.1 hPa | - | - | - | - |
| 1777540675 | 35° C | 54% | 1008.5 hPa | - | - | - | - |
| 1777540626 | 35° C | 54% | 1008.5 hPa | - | - | - | - |
| 1777539426 | 35.56° C | 55% | 1007.9 hPa | - | - | - | - |
| 1777538452 | 35° C | 57% | 1007.9 hPa | - | - | - | - |
| 1777537026 | 35° C | 58% | 1008.5 hPa | - | - | - | - |
| 1777534683 | 35.56° C | 56% | 1009 hPa | - | - | - | - |
| 1777534626 | 35.56° C | 56% | 1009 hPa | - | - | - | - |
| 1777533528 | 35.56° C | 55% | 1009.2 hPa | - | - | - | - |
| 1777533426 | 35.56° C | 55% | 1009.2 hPa | - | - | - | - |
| 1777532226 | 35° C | 56% | 1009.6 hPa | - | - | - | - |
| 1777531026 | 35° C | 56% | 1009.8 hPa | - | - | - | - |
| 1777529826 | 34.44° C | 55% | 1010.2 hPa | - | - | - | - |
| 1777528757 | 34.44° C | 56% | 1010.6 hPa | - | - | - | - |
| 1777528626 | 34.44° C | 56% | 1010.6 hPa | - | - | - | - |
| 1777527426 | 34.44° C | 57% | 1011 hPa | - | - | - | - |
| 1777526226 | 33.89° C | 57% | 1011.4 hPa | - | - | - | - |
| 1777525025 | 33.33° C | 61% | 1011.9 hPa | - | - | - | - |
| 1777523825 | 33.33° C | 63% | 1012.1 hPa | - | - | - | - |
* Rain since midnight (hover to see other rain measurements)
** Current wind speed in m/s (hover to see current wind gust speed)